createdAt,value
2022-12-03T00:07:11.261Z,1009.9
2022-12-03T00:17:17.293Z,1009.8
2022-12-03T00:27:23.354Z,1009.8
2022-12-03T00:37:29.365Z,1009.7
2022-12-03T00:47:35.421Z,1009.8
2022-12-03T00:57:42.581Z,1009.8
2022-12-03T01:07:48.727Z,1009.8
2022-12-03T01:17:54.676Z,1009.8
2022-12-03T01:28:00.718Z,1009.8
2022-12-03T01:38:06.747Z,1009.9
2022-12-03T01:48:12.808Z,1009.8
2022-12-03T01:58:18.833Z,1009.8
2022-12-03T02:08:24.895Z,1009.8
2022-12-03T02:18:30.907Z,1009.8
2022-12-03T02:28:37.033Z,1009.7
2022-12-03T02:38:43.012Z,1009.7
2022-12-03T02:48:49.084Z,1009.7
2022-12-03T02:58:55.097Z,1009.6
2022-12-03T03:09:01.175Z,1009.6
2022-12-03T03:19:07.205Z,1009.5
2022-12-03T03:29:13.265Z,1009.5
2022-12-03T03:39:19.274Z,1009.4
2022-12-03T03:49:25.349Z,1009.4
2022-12-03T03:59:31.350Z,1009.3
2022-12-03T04:09:37.427Z,1009.4
2022-12-03T04:19:43.434Z,1009.3
2022-12-03T04:29:49.491Z,1009.3
2022-12-03T04:39:55.529Z,1009.3
2022-12-03T04:50:01.581Z,1009.2
2022-12-03T05:00:07.603Z,1009.1
2022-12-03T05:10:13.682Z,1009
2022-12-03T05:20:19.692Z,1009
2022-12-03T05:30:25.840Z,1009.1
2022-12-03T05:40:31.774Z,1009
2022-12-03T05:50:37.851Z,1009
2022-12-03T06:00:43.871Z,1009.1
2022-12-03T06:10:49.929Z,1009.1
2022-12-03T06:20:55.950Z,1009.1
2022-12-03T06:31:02.251Z,1009
2022-12-03T06:41:08.047Z,1009.1
2022-12-03T06:51:14.129Z,1009.1
2022-12-03T07:01:20.198Z,1009
2022-12-03T07:11:26.192Z,1009
2022-12-03T07:21:32.232Z,1009
2022-12-03T07:31:38.363Z,1009
2022-12-03T07:41:44.281Z,1009
2022-12-03T07:51:50.369Z,1009
2022-12-03T08:01:56.594Z,1008.9
2022-12-03T08:12:02.468Z,1008.9
2022-12-03T08:22:08.478Z,1008.9
2022-12-03T08:32:14.663Z,1009
2022-12-03T08:42:20.573Z,1009
2022-12-03T08:52:26.625Z,1009
2022-12-03T09:02:32.649Z,1009
2022-12-03T09:12:38.739Z,1009
2022-12-03T09:22:44.766Z,1009
2022-12-03T09:32:50.832Z,1009
2022-12-03T09:42:56.825Z,1009
2022-12-03T09:53:02.895Z,1008.9
2022-12-03T10:03:08.923Z,1008.8
2022-12-03T10:13:14.968Z,1008.8
2022-12-03T10:23:21.000Z,1008.7
2022-12-03T10:33:27.055Z,1008.6
2022-12-03T10:43:33.087Z,1008.4
2022-12-03T10:53:39.156Z,1008.3
2022-12-03T11:03:45.229Z,1008.2
2022-12-03T11:13:51.236Z,1008.1
2022-12-03T11:23:57.260Z,1008.1
2022-12-03T11:34:03.328Z,1008
2022-12-03T11:44:09.352Z,1007.9
2022-12-03T11:54:15.424Z,1007.7
2022-12-03T12:04:21.520Z,1007.5
2022-12-03T12:14:27.513Z,1007.5
2022-12-03T12:24:33.544Z,1007.4
2022-12-03T12:34:39.614Z,1007.3
2022-12-03T12:44:45.607Z,1007.1
2022-12-03T12:54:51.667Z,1007.1
2022-12-03T13:04:57.697Z,1007.1
2022-12-03T13:15:03.827Z,1007
2022-12-03T13:25:09.793Z,1006.9
2022-12-03T13:35:15.899Z,1006.9
2022-12-03T13:45:21.868Z,1006.8
2022-12-03T13:55:27.933Z,1006.8
2022-12-03T14:05:33.988Z,1006.7
2022-12-03T14:15:40.012Z,1006.6
2022-12-03T14:25:46.254Z,1006.6
2022-12-03T14:35:52.108Z,1006.6
2022-12-03T14:45:58.201Z,1006.6
2022-12-03T14:56:04.226Z,1006.7
2022-12-03T15:06:10.240Z,1006.6
2022-12-03T15:16:16.341Z,1006.6
2022-12-03T15:26:22.316Z,1006.6
2022-12-03T15:36:28.352Z,1006.6
2022-12-03T15:46:34.487Z,1006.6
2022-12-03T15:56:40.447Z,1006.5
2022-12-03T16:06:46.479Z,1006.6
2022-12-03T16:16:52.558Z,1006.6
2022-12-03T16:26:58.569Z,1006.7
2022-12-03T16:37:04.622Z,1006.7
2022-12-03T16:47:10.642Z,1006.6
2022-12-03T16:57:16.744Z,1006.5
2022-12-03T17:07:22.750Z,1006.5
2022-12-03T17:17:28.807Z,1006.5
2022-12-03T17:27:34.873Z,1006.5
2022-12-03T17:37:40.898Z,1006.4
2022-12-03T17:47:48.036Z,1006.4
2022-12-03T17:57:54.119Z,1006.3
2022-12-03T18:08:00.200Z,1006.2
2022-12-03T18:18:06.184Z,1006.2
2022-12-03T18:28:12.221Z,1006.2
2022-12-03T18:38:18.291Z,1006.1
2022-12-03T18:48:24.308Z,1006
2022-12-03T18:58:30.369Z,1005.9
2022-12-03T19:08:36.420Z,1006
2022-12-03T19:18:42.467Z,1005.9
2022-12-03T19:28:48.466Z,1006
2022-12-03T19:38:57.144Z,1006
2022-12-03T19:49:00.568Z,1006
2022-12-03T19:59:06.646Z,1006.1
2022-12-03T20:09:13.004Z,1006.1
2022-12-03T20:19:18.730Z,1006.1
2022-12-03T20:29:24.730Z,1006
2022-12-03T20:39:30.807Z,1006
2022-12-03T20:49:36.885Z,1005.9
2022-12-03T20:59:42.897Z,1005.9
2022-12-03T21:09:48.935Z,1005.8
2022-12-03T21:19:55.305Z,1005.8
2022-12-03T21:30:00.998Z,1005.8
2022-12-03T21:40:07.070Z,1005.8
2022-12-03T21:50:13.102Z,1005.7
2022-12-03T22:00:19.182Z,1005.7
2022-12-03T22:10:25.213Z,1005.7
2022-12-03T22:20:31.248Z,1005.7
2022-12-03T22:30:37.333Z,1005.6
2022-12-03T22:40:43.519Z,1005.6
2022-12-03T22:50:49.375Z,1005.5
2022-12-03T23:01:01.285Z,1005.4
2022-12-03T23:11:01.454Z,1005.3
2022-12-03T23:21:07.497Z,1005.3
2022-12-03T23:31:13.599Z,1005.2
2022-12-03T23:41:19.607Z,1005.3
2022-12-03T23:51:25.624Z,1005.3
